YCOP weather

Copmanhurst Oval Helipad
Copmanhurst, New South Wales, Australia

Public forecast

Using degrees Celsius for public forecast. Weather courtesy of forecast.io.

METAR (pilot weather report)

Closest report is Grafton Airport, 16.9 nm (31.2 km) SE. Retrieved 2019/04/24 21:00 UTC (59 minutes ago):

YGFN 242100Z AUTO 00000KT 9999 // NCD 17/17 Q1021

TAF (pilot weather forecast)

Closest forecast is Gold Coast Airport, 93.8 nm (173.7 km) NNE. Retrieved 2019/04/24 18:00 UTC (4 hours ago):

TAF YBCG 241707Z 2418/2518 VRB03KT 9999 -SHRA FEW025 BKN040 FM250000 12012KT 9999 SCT035 FM250800 23005KT 9999 SCT030